sensor_id;sensor_type;location;lat;lon;timestamp;P1;durP1;ratioP1;P2;durP2;ratioP2
42600;SDS011;28229;48.856;9.088;2023-08-06T00:00:49;4.37;;;3.20;;
42600;SDS011;28229;48.856;9.088;2023-08-06T00:03:15;3.67;;;3.27;;
42600;SDS011;28229;48.856;9.088;2023-08-06T00:05:42;4.10;;;3.70;;
42600;SDS011;28229;48.856;9.088;2023-08-06T00:08:11;4.07;;;3.77;;
42600;SDS011;28229;48.856;9.088;2023-08-06T00:10:39;5.50;;;3.40;;
42600;SDS011;28229;48.856;9.088;2023-08-06T00:13:06;3.70;;;3.37;;
42600;SDS011;28229;48.856;9.088;2023-08-06T00:15:32;3.87;;;3.40;;
42600;SDS011;28229;48.856;9.088;2023-08-06T00:17:58;4.10;;;3.10;;
42600;SDS011;28229;48.856;9.088;2023-08-06T00:20:24;3.63;;;3.30;;
42600;SDS011;28229;48.856;9.088;2023-08-06T00:22:50;3.67;;;3.30;;
42600;SDS011;28229;48.856;9.088;2023-08-06T00:25:17;3.50;;;3.20;;
42600;SDS011;28229;48.856;9.088;2023-08-06T00:27:43;3.83;;;3.43;;
42600;SDS011;28229;48.856;9.088;2023-08-06T00:30:09;3.50;;;3.30;;
42600;SDS011;28229;48.856;9.088;2023-08-06T00:32:36;3.77;;;3.47;;
42600;SDS011;28229;48.856;9.088;2023-08-06T00:35:02;3.40;;;3.10;;
42600;SDS011;28229;48.856;9.088;2023-08-06T00:37:29;3.80;;;3.40;;
42600;SDS011;28229;48.856;9.088;2023-08-06T00:39:59;3.53;;;3.23;;
42600;SDS011;28229;48.856;9.088;2023-08-06T00:42:26;3.67;;;2.97;;
42600;SDS011;28229;48.856;9.088;2023-08-06T00:44:52;3.33;;;3.03;;
42600;SDS011;28229;48.856;9.088;2023-08-06T00:47:18;4.27;;;3.40;;
42600;SDS011;28229;48.856;9.088;2023-08-06T00:49:44;3.27;;;3.00;;
42600;SDS011;28229;48.856;9.088;2023-08-06T00:52:11;4.70;;;3.20;;
42600;SDS011;28229;48.856;9.088;2023-08-06T00:54:38;3.83;;;3.50;;
42600;SDS011;28229;48.856;9.088;2023-08-06T00:57:05;3.60;;;3.30;;
42600;SDS011;28229;48.856;9.088;2023-08-06T00:59:34;4.20;;;3.53;;
42600;SDS011;28229;48.856;9.088;2023-08-06T01:02:00;4.13;;;3.53;;
42600;SDS011;28229;48.856;9.088;2023-08-06T01:04:27;5.10;;;3.97;;
42600;SDS011;28229;48.856;9.088;2023-08-06T01:12:45;4.00;;;3.70;;
42600;SDS011;28229;48.856;9.088;2023-08-06T01:15:19;4.30;;;3.67;;
42600;SDS011;28229;48.856;9.088;2023-08-06T01:17:50;4.07;;;3.67;;
42600;SDS011;28229;48.856;9.088;2023-08-06T01:20:17;3.83;;;3.40;;
42600;SDS011;28229;48.856;9.088;2023-08-06T01:22:43;3.77;;;3.43;;
42600;SDS011;28229;48.856;9.088;2023-08-06T01:25:09;3.50;;;3.20;;
42600;SDS011;28229;48.856;9.088;2023-08-06T01:27:44;3.67;;;3.30;;
42600;SDS011;28229;48.856;9.088;2023-08-06T01:32:58;3.50;;;3.20;;
42600;SDS011;28229;48.856;9.088;2023-08-06T01:35:27;3.30;;;2.93;;
42600;SDS011;28229;48.856;9.088;2023-08-06T01:37:54;4.90;;;3.00;;
42600;SDS011;28229;48.856;9.088;2023-08-06T01:40:23;4.93;;;3.30;;
42600;SDS011;28229;48.856;9.088;2023-08-06T01:42:49;3.33;;;3.10;;
42600;SDS011;28229;48.856;9.088;2023-08-06T01:45:15;3.10;;;2.80;;
42600;SDS011;28229;48.856;9.088;2023-08-06T01:47:41;3.43;;;3.13;;
42600;SDS011;28229;48.856;9.088;2023-08-06T01:50:08;3.27;;;2.97;;
42600;SDS011;28229;48.856;9.088;2023-08-06T01:52:34;3.43;;;3.13;;
42600;SDS011;28229;48.856;9.088;2023-08-06T01:55:00;3.07;;;2.87;;
42600;SDS011;28229;48.856;9.088;2023-08-06T01:57:27;3.47;;;3.10;;
42600;SDS011;28229;48.856;9.088;2023-08-06T01:59:53;3.10;;;2.77;;
42600;SDS011;28229;48.856;9.088;2023-08-06T02:02:19;3.37;;;3.03;;
42600;SDS011;28229;48.856;9.088;2023-08-06T02:04:46;3.90;;;3.20;;
42600;SDS011;28229;48.856;9.088;2023-08-06T02:07:12;3.07;;;2.87;;
42600;SDS011;28229;48.856;9.088;2023-08-06T02:09:38;2.80;;;2.60;;
42600;SDS011;28229;48.856;9.088;2023-08-06T02:12:06;3.20;;;2.90;;
42600;SDS011;28229;48.856;9.088;2023-08-06T02:14:32;2.87;;;2.67;;
42600;SDS011;28229;48.856;9.088;2023-08-06T02:16:59;3.30;;;3.00;;
42600;SDS011;28229;48.856;9.088;2023-08-06T02:19:25;3.03;;;2.73;;
42600;SDS011;28229;48.856;9.088;2023-08-06T02:21:51;4.27;;;3.03;;
42600;SDS011;28229;48.856;9.088;2023-08-06T02:24:17;3.60;;;2.77;;
42600;SDS011;28229;48.856;9.088;2023-08-06T02:26:44;3.00;;;2.67;;
42600;SDS011;28229;48.856;9.088;2023-08-06T02:29:10;3.13;;;2.60;;
42600;SDS011;28229;48.856;9.088;2023-08-06T02:31:36;3.13;;;2.83;;
42600;SDS011;28229;48.856;9.088;2023-08-06T02:34:02;3.97;;;2.67;;
42600;SDS011;28229;48.856;9.088;2023-08-06T02:36:28;4.70;;;2.63;;
42600;SDS011;28229;48.856;9.088;2023-08-06T02:38:55;4.03;;;2.60;;
42600;SDS011;28229;48.856;9.088;2023-08-06T02:41:22;2.97;;;2.60;;
42600;SDS011;28229;48.856;9.088;2023-08-06T02:43:48;3.70;;;2.47;;
42600;SDS011;28229;48.856;9.088;2023-08-06T02:49:06;4.93;;;2.87;;
42600;SDS011;28229;48.856;9.088;2023-08-06T02:51:32;2.60;;;2.40;;
42600;SDS011;28229;48.856;9.088;2023-08-06T02:53:58;4.33;;;2.90;;
42600;SDS011;28229;48.856;9.088;2023-08-06T02:56:24;3.30;;;2.50;;
42600;SDS011;28229;48.856;9.088;2023-08-06T02:59:01;2.73;;;2.53;;
42600;SDS011;28229;48.856;9.088;2023-08-06T03:01:56;4.80;;;2.83;;
42600;SDS011;28229;48.856;9.088;2023-08-06T03:04:30;3.77;;;2.70;;
42600;SDS011;28229;48.856;9.088;2023-08-06T03:06:56;3.40;;;2.60;;
42600;SDS011;28229;48.856;9.088;2023-08-06T03:09:27;3.57;;;2.67;;
42600;SDS011;28229;48.856;9.088;2023-08-06T03:11:53;5.23;;;2.53;;
42600;SDS011;28229;48.856;9.088;2023-08-06T03:14:19;2.67;;;2.37;;
42600;SDS011;28229;48.856;9.088;2023-08-06T03:16:46;6.27;;;2.90;;
42600;SDS011;28229;48.856;9.088;2023-08-06T03:19:15;2.87;;;2.60;;
42600;SDS011;28229;48.856;9.088;2023-08-06T03:21:41;2.97;;;2.23;;
42600;SDS011;28229;48.856;9.088;2023-08-06T03:24:07;2.80;;;2.30;;
42600;SDS011;28229;48.856;9.088;2023-08-06T03:26:36;2.90;;;2.60;;
42600;SDS011;28229;48.856;9.088;2023-08-06T03:29:02;2.50;;;2.27;;
42600;SDS011;28229;48.856;9.088;2023-08-06T03:31:33;2.70;;;2.50;;
42600;SDS011;28229;48.856;9.088;2023-08-06T03:34:00;2.37;;;2.27;;
42600;SDS011;28229;48.856;9.088;2023-08-06T03:36:27;2.93;;;2.63;;
42600;SDS011;28229;48.856;9.088;2023-08-06T03:38:54;3.93;;;2.70;;
42600;SDS011;28229;48.856;9.088;2023-08-06T03:41:20;5.07;;;2.80;;
42600;SDS011;28229;48.856;9.088;2023-08-06T03:43:47;2.90;;;2.37;;
42600;SDS011;28229;48.856;9.088;2023-08-06T03:46:20;3.17;;;2.50;;
42600;SDS011;28229;48.856;9.088;2023-08-06T03:48:46;2.83;;;2.63;;
42600;SDS011;28229;48.856;9.088;2023-08-06T03:51:12;2.57;;;2.37;;
42600;SDS011;28229;48.856;9.088;2023-08-06T03:53:39;4.27;;;3.00;;
42600;SDS011;28229;48.856;9.088;2023-08-06T03:56:05;3.03;;;2.73;;
42600;SDS011;28229;48.856;9.088;2023-08-06T03:58:32;3.53;;;2.73;;
42600;SDS011;28229;48.856;9.088;2023-08-06T04:00:59;2.60;;;2.40;;
42600;SDS011;28229;48.856;9.088;2023-08-06T04:03:28;4.07;;;2.70;;
42600;SDS011;28229;48.856;9.088;2023-08-06T04:05:55;3.13;;;2.60;;
42600;SDS011;28229;48.856;9.088;2023-08-06T04:08:21;2.70;;;2.50;;
42600;SDS011;28229;48.856;9.088;2023-08-06T04:10:51;3.23;;;2.30;;
42600;SDS011;28229;48.856;9.088;2023-08-06T04:13:18;3.97;;;2.40;;
42600;SDS011;28229;48.856;9.088;2023-08-06T04:15:45;4.87;;;2.33;;
42600;SDS011;28229;48.856;9.088;2023-08-06T04:18:12;2.63;;;2.40;;
42600;SDS011;28229;48.856;9.088;2023-08-06T04:20:44;2.60;;;2.40;;
42600;SDS011;28229;48.856;9.088;2023-08-06T04:23:12;2.50;;;2.00;;
42600;SDS011;28229;48.856;9.088;2023-08-06T04:25:39;3.73;;;2.23;;
42600;SDS011;28229;48.856;9.088;2023-08-06T04:28:05;2.20;;;2.00;;
42600;SDS011;28229;48.856;9.088;2023-08-06T04:30:32;3.63;;;2.13;;
42600;SDS011;28229;48.856;9.088;2023-08-06T04:32:59;2.57;;;2.13;;
42600;SDS011;28229;48.856;9.088;2023-08-06T04:35:26;2.73;;;2.10;;
42600;SDS011;28229;48.856;9.088;2023-08-06T04:37:53;2.10;;;1.90;;
42600;SDS011;28229;48.856;9.088;2023-08-06T04:40:19;3.67;;;2.20;;
42600;SDS011;28229;48.856;9.088;2023-08-06T04:42:45;2.20;;;2.00;;
42600;SDS011;28229;48.856;9.088;2023-08-06T04:45:11;2.27;;;1.90;;
42600;SDS011;28229;48.856;9.088;2023-08-06T04:47:37;2.60;;;2.00;;
42600;SDS011;28229;48.856;9.088;2023-08-06T04:50:04;2.10;;;1.90;;
42600;SDS011;28229;48.856;9.088;2023-08-06T04:52:30;1.90;;;1.80;;
42600;SDS011;28229;48.856;9.088;2023-08-06T04:54:58;4.20;;;1.67;;
42600;SDS011;28229;48.856;9.088;2023-08-06T04:57:24;2.10;;;1.80;;
42600;SDS011;28229;48.856;9.088;2023-08-06T04:59:50;2.33;;;1.90;;
42600;SDS011;28229;48.856;9.088;2023-08-06T05:02:16;2.50;;;1.90;;
42600;SDS011;28229;48.856;9.088;2023-08-06T05:04:42;2.10;;;1.90;;
42600;SDS011;28229;48.856;9.088;2023-08-06T05:07:10;3.80;;;1.90;;
42600;SDS011;28229;48.856;9.088;2023-08-06T05:09:36;2.27;;;2.07;;
42600;SDS011;28229;48.856;9.088;2023-08-06T05:12:03;3.43;;;1.83;;
42600;SDS011;28229;48.856;9.088;2023-08-06T05:14:29;2.13;;;1.50;;
42600;SDS011;28229;48.856;9.088;2023-08-06T05:16:56;2.03;;;1.80;;
42600;SDS011;28229;48.856;9.088;2023-08-06T05:19:22;1.87;;;1.53;;
42600;SDS011;28229;48.856;9.088;2023-08-06T05:21:48;1.57;;;1.47;;
42600;SDS011;28229;48.856;9.088;2023-08-06T05:24:14;1.90;;;1.50;;
42600;SDS011;28229;48.856;9.088;2023-08-06T05:26:40;1.47;;;1.37;;
42600;SDS011;28229;48.856;9.088;2023-08-06T05:29:06;1.93;;;1.40;;
42600;SDS011;28229;48.856;9.088;2023-08-06T05:31:32;1.70;;;1.60;;
42600;SDS011;28229;48.856;9.088;2023-08-06T05:33:59;2.33;;;1.50;;
42600;SDS011;28229;48.856;9.088;2023-08-06T05:36:27;1.30;;;1.20;;
42600;SDS011;28229;48.856;9.088;2023-08-06T05:38:53;1.37;;;1.30;;
42600;SDS011;28229;48.856;9.088;2023-08-06T05:41:19;1.10;;;1.10;;
42600;SDS011;28229;48.856;9.088;2023-08-06T05:43:45;2.40;;;1.50;;
42600;SDS011;28229;48.856;9.088;2023-08-06T05:46:11;1.67;;;1.20;;
42600;SDS011;28229;48.856;9.088;2023-08-06T05:48:38;2.27;;;1.40;;
42600;SDS011;28229;48.856;9.088;2023-08-06T05:51:04;2.03;;;1.40;;
42600;SDS011;28229;48.856;9.088;2023-08-06T05:53:30;2.03;;;1.30;;
42600;SDS011;28229;48.856;9.088;2023-08-06T05:55:56;4.17;;;1.60;;
42600;SDS011;28229;48.856;9.088;2023-08-06T05:58:22;1.83;;;1.17;;
42600;SDS011;28229;48.856;9.088;2023-08-06T06:00:51;2.17;;;1.20;;
42600;SDS011;28229;48.856;9.088;2023-08-06T06:03:17;1.20;;;1.10;;
42600;SDS011;28229;48.856;9.088;2023-08-06T06:05:44;1.10;;;1.00;;
42600;SDS011;28229;48.856;9.088;2023-08-06T06:08:10;2.03;;;0.90;;
42600;SDS011;28229;48.856;9.088;2023-08-06T06:10:36;1.17;;;0.80;;
42600;SDS011;28229;48.856;9.088;2023-08-06T06:13:05;2.00;;;1.07;;
42600;SDS011;28229;48.856;9.088;2023-08-06T06:15:31;1.43;;;1.00;;
42600;SDS011;28229;48.856;9.088;2023-08-06T06:17:57;1.30;;;0.90;;
42600;SDS011;28229;48.856;9.088;2023-08-06T06:20:23;1.03;;;0.87;;
42600;SDS011;28229;48.856;9.088;2023-08-06T06:22:50;1.60;;;0.87;;
42600;SDS011;28229;48.856;9.088;2023-08-06T06:25:16;0.73;;;0.73;;
42600;SDS011;28229;48.856;9.088;2023-08-06T06:27:42;0.87;;;0.80;;
42600;SDS011;28229;48.856;9.088;2023-08-06T06:30:08;1.43;;;0.80;;
42600;SDS011;28229;48.856;9.088;2023-08-06T06:32:35;1.90;;;0.80;;
42600;SDS011;28229;48.856;9.088;2023-08-06T06:35:01;1.63;;;0.80;;
42600;SDS011;28229;48.856;9.088;2023-08-06T06:37:27;2.77;;;0.77;;
42600;SDS011;28229;48.856;9.088;2023-08-06T06:39:53;0.93;;;0.80;;
42600;SDS011;28229;48.856;9.088;2023-08-06T06:42:19;3.13;;;0.83;;
42600;SDS011;28229;48.856;9.088;2023-08-06T06:44:50;1.30;;;0.80;;
42600;SDS011;28229;48.856;9.088;2023-08-06T06:47:17;0.70;;;0.63;;
42600;SDS011;28229;48.856;9.088;2023-08-06T06:49:43;1.60;;;0.70;;
42600;SDS011;28229;48.856;9.088;2023-08-06T06:52:09;1.17;;;0.90;;
42600;SDS011;28229;48.856;9.088;2023-08-06T06:54:35;1.37;;;0.60;;
42600;SDS011;28229;48.856;9.088;2023-08-06T06:57:01;0.83;;;0.70;;
42600;SDS011;28229;48.856;9.088;2023-08-06T06:59:28;1.40;;;0.53;;
42600;SDS011;28229;48.856;9.088;2023-08-06T07:01:54;0.40;;;0.40;;
42600;SDS011;28229;48.856;9.088;2023-08-06T07:04:20;0.50;;;0.50;;
42600;SDS011;28229;48.856;9.088;2023-08-06T07:06:47;1.13;;;0.50;;
42600;SDS011;28229;48.856;9.088;2023-08-06T07:09:13;1.20;;;0.40;;
42600;SDS011;28229;48.856;9.088;2023-08-06T07:11:39;0.60;;;0.50;;
42600;SDS011;28229;48.856;9.088;2023-08-06T07:14:07;0.87;;;0.40;;
42600;SDS011;28229;48.856;9.088;2023-08-06T07:16:33;0.30;;;0.30;;
42600;SDS011;28229;48.856;9.088;2023-08-06T07:19:00;0.40;;;0.40;;
42600;SDS011;28229;48.856;9.088;2023-08-06T07:21:26;0.30;;;0.30;;
42600;SDS011;28229;48.856;9.088;2023-08-06T07:23:52;0.30;;;0.30;;
42600;SDS011;28229;48.856;9.088;2023-08-06T07:26:18;0.97;;;0.30;;
42600;SDS011;28229;48.856;9.088;2023-08-06T07:28:44;0.40;;;0.40;;
42600;SDS011;28229;48.856;9.088;2023-08-06T07:31:10;0.77;;;0.43;;
42600;SDS011;28229;48.856;9.088;2023-08-06T07:33:37;0.23;;;0.20;;
42600;SDS011;28229;48.856;9.088;2023-08-06T07:36:07;0.53;;;0.30;;
42600;SDS011;28229;48.856;9.088;2023-08-06T07:38:37;1.07;;;0.20;;
42600;SDS011;28229;48.856;9.088;2023-08-06T07:41:04;0.20;;;0.20;;
42600;SDS011;28229;48.856;9.088;2023-08-06T07:43:31;0.77;;;0.40;;
42600;SDS011;28229;48.856;9.088;2023-08-06T07:45:57;2.10;;;0.50;;
42600;SDS011;28229;48.856;9.088;2023-08-06T07:48:26;1.33;;;0.40;;
42600;SDS011;28229;48.856;9.088;2023-08-06T07:50:56;0.63;;;0.50;;
42600;SDS011;28229;48.856;9.088;2023-08-06T07:53:23;0.30;;;0.30;;
42600;SDS011;28229;48.856;9.088;2023-08-06T07:55:53;0.73;;;0.50;;
42600;SDS011;28229;48.856;9.088;2023-08-06T07:58:20;0.37;;;0.33;;
42600;SDS011;28229;48.856;9.088;2023-08-06T08:00:46;0.30;;;0.30;;
42600;SDS011;28229;48.856;9.088;2023-08-06T08:03:13;0.67;;;0.30;;
42600;SDS011;28229;48.856;9.088;2023-08-06T08:05:41;0.83;;;0.43;;
42600;SDS011;28229;48.856;9.088;2023-08-06T08:08:08;0.50;;;0.37;;
42600;SDS011;28229;48.856;9.088;2023-08-06T08:10:34;0.40;;;0.40;;
42600;SDS011;28229;48.856;9.088;2023-08-06T08:13:01;0.40;;;0.30;;
42600;SDS011;28229;48.856;9.088;2023-08-06T08:15:30;0.40;;;0.40;;
42600;SDS011;28229;48.856;9.088;2023-08-06T08:17:57;0.47;;;0.40;;
42600;SDS011;28229;48.856;9.088;2023-08-06T08:20:24;0.63;;;0.63;;
42600;SDS011;28229;48.856;9.088;2023-08-06T08:22:50;0.27;;;0.27;;
42600;SDS011;28229;48.856;9.088;2023-08-06T08:25:16;0.10;;;0.10;;
42600;SDS011;28229;48.856;9.088;2023-08-06T08:27:43;0.20;;;0.20;;
42600;SDS011;28229;48.856;9.088;2023-08-06T08:30:09;0.23;;;0.20;;
42600;SDS011;28229;48.856;9.088;2023-08-06T08:32:35;0.20;;;0.20;;
42600;SDS011;28229;48.856;9.088;2023-08-06T08:35:01;0.23;;;0.23;;
42600;SDS011;28229;48.856;9.088;2023-08-06T08:37:27;0.30;;;0.30;;
42600;SDS011;28229;48.856;9.088;2023-08-06T08:39:54;0.20;;;0.20;;
42600;SDS011;28229;48.856;9.088;2023-08-06T08:42:20;0.10;;;0.10;;
42600;SDS011;28229;48.856;9.088;2023-08-06T08:44:47;0.40;;;0.30;;
42600;SDS011;28229;48.856;9.088;2023-08-06T08:47:13;0.20;;;0.20;;
42600;SDS011;28229;48.856;9.088;2023-08-06T08:49:42;0.27;;;0.20;;
42600;SDS011;28229;48.856;9.088;2023-08-06T08:52:09;0.30;;;0.30;;
42600;SDS011;28229;48.856;9.088;2023-08-06T08:54:38;0.10;;;0.10;;
42600;SDS011;28229;48.856;9.088;2023-08-06T08:57:05;0.20;;;0.17;;
42600;SDS011;28229;48.856;9.088;2023-08-06T08:59:33;0.73;;;0.20;;
42600;SDS011;28229;48.856;9.088;2023-08-06T09:02:00;0.20;;;0.20;;
42600;SDS011;28229;48.856;9.088;2023-08-06T09:04:28;0.20;;;0.20;;
42600;SDS011;28229;48.856;9.088;2023-08-06T09:06:58;0.10;;;0.10;;
42600;SDS011;28229;48.856;9.088;2023-08-06T09:09:26;0.70;;;0.10;;
42600;SDS011;28229;48.856;9.088;2023-08-06T09:11:53;0.20;;;0.10;;
42600;SDS011;28229;48.856;9.088;2023-08-06T09:14:26;0.10;;;0.10;;
42600;SDS011;28229;48.856;9.088;2023-08-06T09:16:52;0.00;;;0.00;;
42600;SDS011;28229;48.856;9.088;2023-08-06T09:19:19;0.07;;;0.07;;
42600;SDS011;28229;48.856;9.088;2023-08-06T09:21:45;0.10;;;0.10;;
42600;SDS011;28229;48.856;9.088;2023-08-06T09:24:14;0.47;;;0.20;;
42600;SDS011;28229;48.856;9.088;2023-08-06T09:26:43;0.10;;;0.10;;
42600;SDS011;28229;48.856;9.088;2023-08-06T09:29:10;0.20;;;0.20;;
42600;SDS011;28229;48.856;9.088;2023-08-06T09:31:41;2.00;;;0.20;;
42600;SDS011;28229;48.856;9.088;2023-08-06T09:34:12;0.10;;;0.10;;
42600;SDS011;28229;48.856;9.088;2023-08-06T09:36:42;0.30;;;0.30;;
42600;SDS011;28229;48.856;9.088;2023-08-06T09:39:15;0.00;;;0.00;;
42600;SDS011;28229;48.856;9.088;2023-08-06T09:41:43;0.20;;;0.20;;
42600;SDS011;28229;48.856;9.088;2023-08-06T09:46:49;0.13;;;0.10;;
42600;SDS011;28229;48.856;9.088;2023-08-06T09:49:18;0.10;;;0.10;;
42600;SDS011;28229;48.856;9.088;2023-08-06T09:51:45;0.20;;;0.20;;
42600;SDS011;28229;48.856;9.088;2023-08-06T09:54:12;0.10;;;0.10;;
42600;SDS011;28229;48.856;9.088;2023-08-06T09:56:40;0.13;;;0.13;;
42600;SDS011;28229;48.856;9.088;2023-08-06T09:59:06;0.13;;;0.13;;
42600;SDS011;28229;48.856;9.088;2023-08-06T10:01:33;0.37;;;0.10;;
42600;SDS011;28229;48.856;9.088;2023-08-06T10:04:00;0.40;;;0.10;;
42600;SDS011;28229;48.856;9.088;2023-08-06T10:06:28;0.10;;;0.10;;
42600;SDS011;28229;48.856;9.088;2023-08-06T10:08:55;0.10;;;0.10;;
42600;SDS011;28229;48.856;9.088;2023-08-06T10:11:22;0.83;;;0.03;;
42600;SDS011;28229;48.856;9.088;2023-08-06T10:14:34;0.53;;;0.20;;
42600;SDS011;28229;48.856;9.088;2023-08-06T10:16:50;1.20;;;1.10;;
42600;SDS011;28229;48.856;9.088;2023-08-06T10:19:17;0.53;;;0.50;;
42600;SDS011;28229;48.856;9.088;2023-08-06T10:24:45;0.37;;;0.37;;
42600;SDS011;28229;48.856;9.088;2023-08-06T10:29:47;0.20;;;0.20;;
42600;SDS011;28229;48.856;9.088;2023-08-06T10:32:15;0.20;;;0.20;;
42600;SDS011;28229;48.856;9.088;2023-08-06T10:37:53;0.50;;;0.20;;
42600;SDS011;28229;48.856;9.088;2023-08-06T10:40:22;1.40;;;0.30;;
42600;SDS011;28229;48.856;9.088;2023-08-06T10:42:50;0.30;;;0.30;;
42600;SDS011;28229;48.856;9.088;2023-08-06T10:45:19;0.23;;;0.20;;
42600;SDS011;28229;48.856;9.088;2023-08-06T10:47:46;0.30;;;0.23;;
42600;SDS011;28229;48.856;9.088;2023-08-06T10:50:15;0.00;;;0.00;;
42600;SDS011;28229;48.856;9.088;2023-08-06T10:52:46;0.20;;;0.20;;
42600;SDS011;28229;48.856;9.088;2023-08-06T10:55:28;0.10;;;0.10;;
42600;SDS011;28229;48.856;9.088;2023-08-06T10:57:55;0.40;;;0.40;;
42600;SDS011;28229;48.856;9.088;2023-08-06T11:00:22;0.30;;;0.30;;
42600;SDS011;28229;48.856;9.088;2023-08-06T11:02:52;0.50;;;0.50;;
42600;SDS011;28229;48.856;9.088;2023-08-06T11:05:22;0.50;;;0.50;;
42600;SDS011;28229;48.856;9.088;2023-08-06T11:07:48;1.27;;;0.50;;
42600;SDS011;28229;48.856;9.088;2023-08-06T11:10:15;0.47;;;0.47;;
42600;SDS011;28229;48.856;9.088;2023-08-06T11:12:41;0.70;;;0.70;;
42600;SDS011;28229;48.856;9.088;2023-08-06T11:15:07;0.67;;;0.67;;
42600;SDS011;28229;48.856;9.088;2023-08-06T11:17:34;0.70;;;0.70;;
42600;SDS011;28229;48.856;9.088;2023-08-06T11:20:04;0.67;;;0.50;;
42600;SDS011;28229;48.856;9.088;2023-08-06T11:22:31;0.60;;;0.60;;
42600;SDS011;28229;48.856;9.088;2023-08-06T11:24:58;1.03;;;0.60;;
42600;SDS011;28229;48.856;9.088;2023-08-06T11:27:26;0.80;;;0.80;;
42600;SDS011;28229;48.856;9.088;2023-08-06T11:29:54;2.20;;;0.90;;
42600;SDS011;28229;48.856;9.088;2023-08-06T11:32:21;0.73;;;0.73;;
42600;SDS011;28229;48.856;9.088;2023-08-06T11:34:47;1.10;;;1.00;;
42600;SDS011;28229;48.856;9.088;2023-08-06T11:37:13;0.90;;;0.87;;
42600;SDS011;28229;48.856;9.088;2023-08-06T11:39:39;0.80;;;0.80;;
42600;SDS011;28229;48.856;9.088;2023-08-06T11:42:12;1.10;;;1.00;;
42600;SDS011;28229;48.856;9.088;2023-08-06T11:44:40;1.37;;;1.00;;
42600;SDS011;28229;48.856;9.088;2023-08-06T11:47:14;1.43;;;1.00;;
42600;SDS011;28229;48.856;9.088;2023-08-06T11:49:46;1.43;;;1.13;;
42600;SDS011;28229;48.856;9.088;2023-08-06T11:52:28;2.60;;;1.00;;
42600;SDS011;28229;48.856;9.088;2023-08-06T11:55:07;1.33;;;1.20;;
42600;SDS011;28229;48.856;9.088;2023-08-06T11:57:38;1.50;;;1.40;;
42600;SDS011;28229;48.856;9.088;2023-08-06T12:00:06;1.83;;;1.20;;
42600;SDS011;28229;48.856;9.088;2023-08-06T12:02:44;2.40;;;1.60;;
42600;SDS011;28229;48.856;9.088;2023-08-06T12:05:14;2.33;;;1.50;;
42600;SDS011;28229;48.856;9.088;2023-08-06T12:07:43;2.40;;;1.40;;
42600;SDS011;28229;48.856;9.088;2023-08-06T12:10:14;1.60;;;1.40;;
42600;SDS011;28229;48.856;9.088;2023-08-06T12:12:42;1.77;;;1.67;;
42600;SDS011;28229;48.856;9.088;2023-08-06T12:15:08;1.50;;;1.40;;
42600;SDS011;28229;48.856;9.088;2023-08-06T12:17:35;1.57;;;1.47;;
42600;SDS011;28229;48.856;9.088;2023-08-06T12:20:02;1.57;;;1.47;;
42600;SDS011;28229;48.856;9.088;2023-08-06T12:22:33;1.57;;;1.40;;
42600;SDS011;28229;48.856;9.088;2023-08-06T12:25:05;1.77;;;1.50;;
42600;SDS011;28229;48.856;9.088;2023-08-06T12:27:34;3.57;;;1.57;;
42600;SDS011;28229;48.856;9.088;2023-08-06T12:30:01;1.83;;;1.60;;
42600;SDS011;28229;48.856;9.088;2023-08-06T12:32:27;1.83;;;1.50;;
42600;SDS011;28229;48.856;9.088;2023-08-06T12:34:53;1.57;;;1.47;;
42600;SDS011;28229;48.856;9.088;2023-08-06T12:37:19;2.00;;;1.63;;
42600;SDS011;28229;48.856;9.088;2023-08-06T12:39:46;1.80;;;1.50;;
42600;SDS011;28229;48.856;9.088;2023-08-06T12:42:14;1.40;;;1.30;;
42600;SDS011;28229;48.856;9.088;2023-08-06T12:44:40;1.40;;;1.30;;
42600;SDS011;28229;48.856;9.088;2023-08-06T12:47:07;1.13;;;1.10;;
42600;SDS011;28229;48.856;9.088;2023-08-06T12:49:34;2.57;;;1.40;;
42600;SDS011;28229;48.856;9.088;2023-08-06T12:52:00;1.43;;;1.00;;
42600;SDS011;28229;48.856;9.088;2023-08-06T12:54:26;1.30;;;1.20;;
42600;SDS011;28229;48.856;9.088;2023-08-06T12:56:53;1.00;;;1.00;;
42600;SDS011;28229;48.856;9.088;2023-08-06T12:59:19;2.37;;;1.30;;
42600;SDS011;28229;48.856;9.088;2023-08-06T13:01:46;0.90;;;0.90;;
42600;SDS011;28229;48.856;9.088;2023-08-06T13:04:13;4.70;;;1.30;;
42600;SDS011;28229;48.856;9.088;2023-08-06T13:06:39;1.07;;;0.90;;
42600;SDS011;28229;48.856;9.088;2023-08-06T13:09:06;2.70;;;1.00;;
42600;SDS011;28229;48.856;9.088;2023-08-06T13:11:36;2.70;;;1.30;;
42600;SDS011;28229;48.856;9.088;2023-08-06T13:14:04;1.10;;;1.10;;
42600;SDS011;28229;48.856;9.088;2023-08-06T13:16:32;1.20;;;1.10;;
42600;SDS011;28229;48.856;9.088;2023-08-06T13:18:59;2.73;;;1.30;;
42600;SDS011;28229;48.856;9.088;2023-08-06T13:21:31;0.90;;;0.90;;
42600;SDS011;28229;48.856;9.088;2023-08-06T13:24:01;1.20;;;1.00;;
42600;SDS011;28229;48.856;9.088;2023-08-06T13:26:28;0.70;;;0.70;;
42600;SDS011;28229;48.856;9.088;2023-08-06T13:28:59;0.80;;;0.80;;
42600;SDS011;28229;48.856;9.088;2023-08-06T13:31:26;1.33;;;0.83;;
42600;SDS011;28229;48.856;9.088;2023-08-06T13:33:56;1.17;;;0.80;;
42600;SDS011;28229;48.856;9.088;2023-08-06T13:36:26;0.73;;;0.73;;
42600;SDS011;28229;48.856;9.088;2023-08-06T13:38:52;0.83;;;0.60;;
42600;SDS011;28229;48.856;9.088;2023-08-06T13:41:19;1.17;;;0.80;;
42600;SDS011;28229;48.856;9.088;2023-08-06T13:43:47;0.67;;;0.67;;
42600;SDS011;28229;48.856;9.088;2023-08-06T13:46:14;0.60;;;0.60;;
42600;SDS011;28229;48.856;9.088;2023-08-06T13:48:44;0.60;;;0.60;;
42600;SDS011;28229;48.856;9.088;2023-08-06T13:51:11;0.50;;;0.50;;
42600;SDS011;28229;48.856;9.088;2023-08-06T13:53:38;0.77;;;0.60;;
42600;SDS011;28229;48.856;9.088;2023-08-06T13:56:05;1.17;;;0.90;;
42600;SDS011;28229;48.856;9.088;2023-08-06T13:58:33;1.37;;;0.73;;
42600;SDS011;28229;48.856;9.088;2023-08-06T14:00:59;0.60;;;0.60;;
42600;SDS011;28229;48.856;9.088;2023-08-06T14:03:25;2.13;;;0.77;;
42600;SDS011;28229;48.856;9.088;2023-08-06T14:05:51;0.53;;;0.53;;
42600;SDS011;28229;48.856;9.088;2023-08-06T14:08:18;0.70;;;0.70;;
42600;SDS011;28229;48.856;9.088;2023-08-06T14:10:44;1.13;;;0.80;;
42600;SDS011;28229;48.856;9.088;2023-08-06T14:13:11;0.77;;;0.77;;
42600;SDS011;28229;48.856;9.088;2023-08-06T14:15:38;0.70;;;0.70;;
42600;SDS011;28229;48.856;9.088;2023-08-06T14:18:07;0.80;;;0.80;;
42600;SDS011;28229;48.856;9.088;2023-08-06T14:20:34;0.80;;;0.80;;
42600;SDS011;28229;48.856;9.088;2023-08-06T14:23:00;1.00;;;1.00;;
42600;SDS011;28229;48.856;9.088;2023-08-06T14:25:27;0.83;;;0.83;;
42600;SDS011;28229;48.856;9.088;2023-08-06T14:27:53;0.77;;;0.70;;
42600;SDS011;28229;48.856;9.088;2023-08-06T14:30:19;1.40;;;0.83;;
42600;SDS011;28229;48.856;9.088;2023-08-06T14:32:45;0.87;;;0.87;;
42600;SDS011;28229;48.856;9.088;2023-08-06T14:35:11;0.70;;;0.70;;
42600;SDS011;28229;48.856;9.088;2023-08-06T14:37:38;0.80;;;0.80;;
42600;SDS011;28229;48.856;9.088;2023-08-06T14:40:05;1.47;;;0.70;;
42600;SDS011;28229;48.856;9.088;2023-08-06T14:42:32;0.80;;;0.80;;
42600;SDS011;28229;48.856;9.088;2023-08-06T14:44:58;1.73;;;1.00;;
42600;SDS011;28229;48.856;9.088;2023-08-06T14:47:24;0.90;;;0.80;;
42600;SDS011;28229;48.856;9.088;2023-08-06T14:49:50;0.97;;;0.80;;
42600;SDS011;28229;48.856;9.088;2023-08-06T14:52:19;0.87;;;0.70;;
42600;SDS011;28229;48.856;9.088;2023-08-06T14:54:45;3.50;;;0.87;;
42600;SDS011;28229;48.856;9.088;2023-08-06T14:57:11;2.17;;;0.80;;
42600;SDS011;28229;48.856;9.088;2023-08-06T14:59:39;2.63;;;0.70;;
42600;SDS011;28229;48.856;9.088;2023-08-06T15:02:06;0.80;;;0.80;;
42600;SDS011;28229;48.856;9.088;2023-08-06T15:04:32;1.20;;;0.70;;
42600;SDS011;28229;48.856;9.088;2023-08-06T15:06:58;1.70;;;0.60;;
42600;SDS011;28229;48.856;9.088;2023-08-06T15:09:24;0.80;;;0.70;;
42600;SDS011;28229;48.856;9.088;2023-08-06T15:11:50;0.80;;;0.80;;